Latest Weather Observations for Badgerys Creek

IDN60901

Issued at 11:25 pm EDT Monday 24 November 2014 (issued every 10 minutes, with the page automatically refreshed every 10 minutes)

About weather observations | Map of Sydney area stations | Latest observations for Sydney area | Other Formats
Station Details ID: 067108 Name: BADGERYS CREEK AWS Lat: -33.90 Lon: 150.73 Height: 81.2 m
Data from the previous 72 hours. | See also: Recent months at Badgerys Creek
Date/Time
EDT
Tmp

°C
App
Tmp
°C
Dew
Point
°C
Rel
Hum
%
Delta-T

°C
Wind Press
QNH
hPa
Press
MSL
hPa
Rain
since
9 am
mm
Dir
 
Spd
km/h
Gust
km/h
Spd
kts
Gust
kts
24/11:00pm 22.6 25.4 20.9 90 1.1 NNW 7 9 4 5 1009.4 1009.1 2.8
24/10:30pm 22.6 26.3 20.7 89 1.2 SW 2 6 1 3 1009.2 1008.9 2.8
24/10:00pm 22.5 25.7 20.4 88 1.4 S 4 6 2 3 1009.5 1009.2 2.8
24/09:30pm 23.0 26.9 20.3 85 1.8 CALM 0 0 0 0 1009.5 1009.2 2.8
24/09:00pm 22.9 26.3 20.2 85 1.8 NE 2 6 1 3 1009.2 1008.9 2.8
24/08:30pm 22.9 25.5 20.1 84 1.8 NNE 6 7 3 4 1009.1 1008.8 2.8
24/08:00pm 23.1 26.9 20.1 83 1.9 CALM 0 0 0 0 1008.8 1008.5 2.8
24/07:30pm 23.1 25.9 19.7 81 2.2 ESE 4 7 2 4 1008.6 1008.3 2.8
24/07:00pm 23.4 23.3 19.5 79 2.5 ENE 19 24 10 13 1008.3 1008.0 2.8
24/06:30pm 24.4 26.8 20.1 77 2.8 ENE 7 11 4 6 1008.4 1008.1 2.8
24/06:00pm 24.8 26.9 20.1 75 3.1 E 9 13 5 7 1007.4 1007.1 2.8
24/05:30pm 24.3 25.6 20.2 78 2.7 E 13 20 7 11 1007.1 1006.8 2.8
24/05:00pm 24.1 26.1 20.0 78 2.7 ESE 9 13 5 7 1007.8 1007.5 2.8
24/04:30pm 24.7 26.5 20.4 77 2.8 SE 11 19 6 10 1007.8 1007.5 2.8
24/04:00pm 23.9 25.1 19.8 78 2.7 SE 13 19 7 10 1007.4 1007.1 2.8
24/03:30pm 26.3 28.6 19.9 68 4.2 ESE 7 11 4 6 1008.9 1008.6 2.2
24/03:00pm 31.4 31.0 18.0 44 8.6 ESE 17 26 9 14 1007.0 1006.7 0.0
24/02:30pm 33.9 34.6 18.0 39 10.3 NE 11 17 6 9 1006.8 1006.5 0.0
24/02:00pm 33.3 33.6 17.9 40 10.0 ENE 13 22 7 12 1007.5 1007.2 0.0
24/01:30pm 32.8 33.6 18.2 42 9.5 ENE 11 20 6 11 1008.7 1008.4 0.0
24/01:00pm 30.8 32.3 18.8 48 7.8 ENE 9 19 5 10 1009.5 1009.2 0.0
24/12:30pm 30.7 32.9 19.1 50 7.6 ENE 6 9 3 5 1010.4 1010.2 0.0
24/12:00pm 29.0 30.8 18.4 52 6.8 NE 6 13 3 7 1011.3 1011.1 0.0
24/11:30am 27.8 29.8 18.8 58 5.8 ESE 6 13 3 7 1012.1 1011.9 0.0
24/11:00am 26.2 28.5 18.6 63 4.9 NNE 4 9 2 5 1013.0 1012.8 0.0
24/10:30am 24.9 27.2 18.6 68 4.0 W 4 7 2 4 1013.9 1013.7 0.0
24/10:00am 24.5 27.0 19.1 72 3.5 N 4 6 2 3 1014.6 1014.4 0.0
24/09:30am 23.2 24.9 18.1 73 3.2 ENE 6 9 3 5 1014.8 1014.6 0.0
24/09:00am 22.2 24.8 18.4 79 2.4 ENE 2 6 1 3 1015.3 1015.1 0.0
24/08:30am 21.7 23.5 18.3 81 2.1 ENE 6 11 3 6 1015.7 1015.5 0.0
24/08:00am 21.4 22.2 18.2 82 2.0 ENE 11 15 6 8 1015.4 1015.2 0.0
24/07:30am 21.4 21.6 18.6 84 1.8 ENE 15 22 8 12 1014.7 1014.5 0.0
24/07:00am 21.1 20.9 18.5 85 1.6 ENE 17 26 9 14 1014.3 1014.1 0.0
24/06:30am 21.2 21.6 19.1 88 1.3 NE 15 20 8 11 1013.5 1013.3 0.0
24/06:00am 20.9 22.2 19.4 91 1.0 ENE 11 17 6 9 1012.6 1012.4 0.0
24/05:30am 20.8 23.0 19.5 92 0.8 ENE 7 9 4 5 1011.8 1011.6 0.0
24/05:00am 20.7 22.8 19.4 92 0.8 E 7 9 4 5 1011.8 1011.6 0.0
24/04:30am 20.4 22.1 19.4 94 0.6 SSE 9 11 5 6 1011.5 1011.3 0.0
24/04:00am 19.9 22.3 18.7 93 0.8 SW 4 6 2 3 1012.3 1012.1 0.0
24/03:30am 20.0 22.3 18.5 91 0.9 SW 4 7 2 4 1012.0 1011.8 0.0
24/03:00am 20.6 23.5 19.1 91 0.9 W 2 6 1 3 1012.2 1012.0 0.0
24/02:30am 21.0 23.9 19.1 89 1.2 NNE 2 6 1 3 1012.7 1012.5 0.0
24/02:00am 21.3 24.2 19.0 87 1.5 ESE 2 4 1 2 1012.7 1012.5 0.0
24/01:30am 21.4 23.5 19.3 88 1.3 SSW 7 11 4 6 1013.4 1013.2 0.0
24/01:00am 21.6 23.8 19.3 87 1.5 NE 6 9 3 5 1013.3 1013.1 0.0
24/12:30am 21.8 24.9 19.4 86 1.5 N 2 4 1 2 1014.1 1013.9 0.0
24/12:00am 22.1 24.2 19.3 84 1.8 NNW 7 9 4 5 1014.5 1014.3 0.0
 
Date/Time
EDT
Tmp

°C
App
Tmp
°C
Dew
Point
°C
Rel
Hum
%
Delta-T

°C
Wind Press
QNH
hPa
Press
MSL
hPa
Rain
since
9 am
mm
Dir
 
Spd
km/h
Gust
km/h
Spd
kts
Gust
kts
23/11:30pm 22.2 23.3 19.6 85 1.7 NNE 13 19 7 10 1014.2 1014.0 0.0
23/11:00pm 22.3 23.8 19.7 85 1.7 NNE 11 19 6 10 1013.4 1013.2 0.0
23/10:30pm 22.4 24.6 19.6 84 1.8 N 7 9 4 5 1014.3 1014.1 0.0
23/10:00pm 22.7 24.7 19.1 80 2.3 NNE 7 13 4 7 1013.5 1013.3 0.0
23/09:30pm 22.8 25.7 19.0 79 2.4 NE 2 6 1 3 1012.9 1012.7 0.0
23/09:00pm 23.2 24.2 18.7 76 2.9 E 11 17 6 9 1012.4 1012.2 0.0
23/08:30pm 24.8 25.7 18.5 68 4.0 ESE 11 19 6 10 1012.3 1012.1 0.0
23/08:00pm 26.2 27.8 18.3 61 5.0 S 7 11 4 6 1011.9 1011.7 0.0
23/07:30pm 26.6 27.0 18.2 60 5.3 SSE 13 19 7 10 1010.8 1010.6 0.0
23/07:00pm 26.7 27.3 18.6 61 5.2 SE 13 20 7 11 1009.9 1009.6 0.0
23/06:30pm 26.8 26.9 19.2 63 4.9 SE 17 24 9 13 1008.4 1008.1 0.0
23/06:00pm 27.8 27.1 19.6 61 5.4 SE 22 35 12 19 1007.8 1007.5 0.0
23/05:30pm 29.7 29.0 19.4 54 6.7 ESE 22 32 12 17 1006.2 1005.9 0.0
23/05:21pm 30.4 29.3 19.4 51 7.2 E 24 33 13 18 1006.2 1005.9 0.0
23/05:00pm 35.4 34.6 19.3 38 10.7 E 22 28 12 15 1005.7 1005.4 0.0
23/04:30pm 36.2 36.7 19.2 37 11.3 ESE 15 22 8 12 1006.1 1005.8 0.0
23/04:00pm 36.3 35.5 19.3 37 11.3 E 22 32 12 17 1006.3 1006.0 0.0
23/03:30pm 38.8 38.9 19.1 31 13.2 E 17 22 9 12 1006.2 1005.9 0.0
23/03:00pm 40.6 40.5 17.9 26 15.0 E 15 20 8 11 1006.5 1006.2 0.0
23/02:30pm 40.7 40.5 16.8 24 15.6 E 13 19 7 10 1007.0 1006.7 0.0
23/02:00pm 39.8 40.3 18.4 28 14.2 E 13 22 7 12 1007.5 1007.2 0.0
23/01:30pm 38.9 38.2 16.5 26 14.5 ENE 15 19 8 10 1007.8 1007.5 0.0
23/01:00pm 38.7 38.1 15.7 25 14.7 NE 13 24 7 13 1008.4 1008.1 0.0
23/12:30pm 36.9 36.2 16.5 30 13.1 NE 15 20 8 11 1008.9 1008.6 0.0
23/12:00pm 34.6 35.2 16.9 35 11.4 ENE 9 17 5 9 1009.7 1009.4 0.0
23/11:30am 33.4 34.5 18.0 40 10.0 ENE 9 13 5 7 1010.3 1010.0 0.0
23/11:00am 31.8 32.9 18.0 43 8.9 NE 9 13 5 7 1010.6 1010.4 0.0
23/10:30am 30.2 31.5 17.6 46 8.0 ENE 7 11 4 6 1010.9 1010.7 0.0
23/10:00am 28.9 30.8 17.7 50 7.1 ENE 4 7 2 4 1011.1 1010.9 0.0
23/09:30am 26.9 28.8 17.7 57 5.8 E 4 6 2 3 1011.4 1011.2 0.0
23/09:00am 25.5 28.6 18.7 66 4.3 CALM 0 4 0 2 1011.4 1011.2 0.0
23/08:30am 22.5 25.2 17.8 75 2.9 CALM 0 0 0 0 1011.7 1011.5 0.0
23/08:00am 20.9 22.9 17.9 83 1.9 N 4 6 2 3 1011.5 1011.3 0.0
23/07:30am 20.0 22.0 17.8 87 1.4 NNW 4 7 2 4 1011.5 1011.3 0.0
23/07:00am 18.7 21.0 17.7 94 0.6 NNE 2 4 1 2 1011.4 1011.2 0.0
23/06:30am 17.3 19.2 16.7 96 0.4 NE 2 4 1 2 1011.0 1010.8 0.0
23/06:00am 17.1 18.5 16.5 96 0.4 NNE 4 6 2 3 1011.0 1010.8 0.0
23/05:30am 16.9 18.6 16.3 96 0.4 NNE 2 4 1 2 1011.2 1011.0 0.0
23/05:00am 16.9 18.3 16.4 97 0.3 NNE 4 7 2 4 1010.7 1010.5 0.0
23/04:30am 16.9 19.1 16.4 97 0.3 CALM 0 0 0 0 1010.8 1010.6 0.0
23/04:00am 16.9 19.1 16.4 97 0.3 CALM 0 0 0 0 1010.9 1010.7 0.0
23/03:30am 16.5 18.5 15.9 96 0.4 CALM 0 0 0 0 1010.7 1010.5 0.0
23/03:00am 17.0 18.4 16.5 97 0.3 E 4 4 2 2 1011.1 1010.9 0.0
23/02:30am 17.3 18.7 16.5 95 0.5 E 4 4 2 2 1011.2 1011.0 0.0
23/02:00am 17.3 18.7 16.5 95 0.5 E 4 6 2 3 1011.7 1011.5 0.0
23/01:30am 17.8 20.1 16.7 93 0.7 CALM 0 0 0 0 1011.9 1011.7 0.0
23/01:00am 17.4 18.7 16.1 92 0.8 E 4 6 2 3 1012.4 1012.2 0.0
23/12:30am 18.1 19.9 16.4 90 1.0 E 2 4 1 2 1012.7 1012.5 0.0
23/12:00am 18.4 20.0 16.9 91 0.9 E 4 6 2 3 1013.0 1012.8 0.0
 
Date/Time
EDT
Tmp

°C
App
Tmp
°C
Dew
Point
°C
Rel
Hum
%
Delta-T

°C
Wind Press
QNH
hPa
Press
MSL
hPa
Rain
since
9 am
mm
Dir
 
Spd
km/h
Gust
km/h
Spd
kts
Gust
kts
22/11:30pm 18.9 21.3 16.9 88 1.2 CALM 0 0 0 0 1013.3 1013.1 0.0
22/11:00pm 18.7 20.9 16.5 87 1.3 CALM 0 2 0 1 1013.5 1013.3 0.0
22/10:30pm 19.4 21.3 16.6 84 1.7 E 2 4 1 2 1013.4 1013.2 0.0
22/10:00pm 20.2 21.9 17.2 83 1.8 E 4 4 2 2 1013.6 1013.4 0.0
22/09:30pm 20.3 21.5 16.9 81 2.1 E 6 6 3 3 1013.4 1013.2 0.0
22/09:00pm 20.8 22.4 17.0 79 2.3 E 4 6 2 3 1013.0 1012.8 0.0
22/08:30pm 21.3 22.9 16.9 76 2.7 ENE 4 6 2 3 1012.5 1012.3 0.0
22/08:00pm 21.9 22.9 16.8 73 3.1 ENE 7 11 4 6 1012.2 1012.0 0.0
22/07:30pm 22.7 23.3 16.7 69 3.7 NE 9 11 5 6 1011.7 1011.5 0.0
22/07:00pm 23.9 24.3 16.4 63 4.6 ENE 9 13 5 7 1011.4 1011.2 0.0
22/06:30pm 24.6 24.2 16.3 60 5.1 E 13 17 7 9 1011.0 1010.8 0.0
22/06:00pm 25.0 24.3 16.4 59 5.3 ESE 15 19 8 10 1010.7 1010.5 0.0
22/05:30pm 25.4 23.6 16.0 56 5.8 E 20 30 11 16 1010.4 1010.2 0.0
22/05:00pm 26.3 24.5 16.0 53 6.3 E 20 30 11 16 1010.2 1009.9 0.0
22/04:30pm 27.4 25.5 15.7 48 7.2 E 20 28 11 15 1010.1 1009.8 0.0
22/04:00pm 29.1 27.6 16.3 46 8.0 ESE 19 24 10 13 1009.9 1009.6 0.0
22/03:30pm 29.8 28.3 16.2 43 8.5 E 19 24 10 13 1010.0 1009.7 0.0
22/03:00pm 30.7 29.6 14.3 36 10.0 ENE 13 20 7 11 1010.3 1010.0 0.0
22/02:30pm 30.4 30.1 14.5 38 9.7 NNE 9 19 5 10 1011.0 1010.8 0.0
22/02:00pm 29.5 29.1 15.2 41 8.8 ESE 11 19 6 10 1011.6 1011.4 0.0
22/01:30pm 28.5 28.3 14.7 43 8.4 NE 9 17 5 9 1012.4 1012.2 0.0
22/01:00pm 27.5 27.2 14.5 45 7.8 NE 9 24 5 13 1012.8 1012.6 0.0
22/12:30pm 26.5 26.0 13.9 45 7.5 NE 9 19 5 10 1013.3 1013.1 0.0
22/12:00pm 27.0 26.6 15.1 48 7.2 N 11 19 6 10 1014.0 1013.8 0.0
22/11:30am 25.3 24.2 13.2 47 7.1 NE 11 20 6 11 1014.4 1014.2 0.0
22/11:00am 24.9 24.3 13.5 49 6.7 NNW 9 17 5 9 1015.0 1014.8 0.0
22/10:30am 23.8 22.9 13.6 52 6.0 N 11 19 6 10 1015.2 1015.0 0.0
22/10:00am 22.9 22.4 12.8 53 5.8 NNE 7 15 4 8 1015.5 1015.3 0.0
22/09:30am 21.7 22.0 12.3 55 5.3 NNE 2 6 1 3 1016.3 1016.1 0.0
22/09:00am 21.3 21.8 12.7 58 4.9 ESE 2 6 1 3 1016.4 1016.2 0.0
22/08:30am 21.1 21.6 14.0 64 4.1 ESE 4 9 2 5 1016.1 1015.9 0.0
22/08:00am 20.9 21.2 14.5 67 3.7 E 6 11 3 6 1015.9 1015.7 0.0
22/07:30am 20.6 21.1 14.9 70 3.4 E 6 7 3 4 1016.2 1016.0 0.0
22/07:00am 19.8 21.4 14.8 73 2.9 CALM 0 0 0 0 1015.9 1015.7 0.0
22/06:30am 17.7 19.3 14.8 83 1.7 CALM 0 2 0 1 1015.6 1015.4 0.0
22/06:00am 17.1 18.0 14.0 82 1.8 SSE 2 2 1 1 1015.2 1015.0 0.0
22/05:30am 17.6 18.3 14.5 82 1.8 SSE 4 6 2 3 1014.9 1014.7 0.0
22/05:00am 17.6 17.8 14.1 80 2.0 SSE 6 7 3 4 1014.4 1014.2 0.0
22/04:30am 18.5 19.9 14.4 77 2.4 CALM 0 0 0 0 1014.1 1013.9 0.0
22/04:00am 18.9 19.6 14.4 75 2.6 E 4 6 2 3 1014.0 1013.8 0.0
22/03:30am 19.3 19.7 14.8 75 2.6 ESE 6 9 3 5 1014.2 1014.0 0.0
22/03:00am 19.5 19.9 15.2 76 2.5 E 7 11 4 6 1014.2 1014.0 0.0
22/02:30am 19.6 19.9 15.0 75 2.7 ESE 7 11 4 6 1014.3 1014.1 0.0
22/02:00am 19.8 19.8 15.2 75 2.7 SE 9 13 5 7 1014.5 1014.3 0.0
22/01:30am 19.8 19.8 15.2 75 2.7 S 9 15 5 8 1014.5 1014.3 0.0
22/01:00am 19.6 19.5 15.0 75 2.7 SSE 9 15 5 8 1014.7 1014.5 0.0
22/12:30am 19.8 19.8 15.2 75 2.7 SSE 9 13 5 7 1014.8 1014.6 0.0
22/12:00am 20.3 20.0 15.5 74 2.9 S 11 19 6 10 1014.8 1014.6 0.0
 
Date/Time
EDT
Tmp

°C
App
Tmp
°C
Dew
Point
°C
Rel
Hum
%
Delta-T

°C
Wind Press
QNH
hPa
Press
MSL
hPa
Rain
since
9 am
mm
Dir
 
Spd
km/h
Gust
km/h
Spd
kts
Gust
kts
21/11:30pm 20.4 20.6 15.8 75 2.8 SSE 9 13 5 7 1014.6 1014.4 0.0

Latest Capital City Observations: Canberra | Sydney | Melbourne | Brisbane | Adelaide | Perth | Hobart | Darwin

Other Formats:

Comma delimited format used in spreadsheet applications
http://www.bom.gov.au/fwo/IDN60901/IDN60901.94752.axf

JavaScript Object Notation format (JSON) in row-major order
http://www.bom.gov.au/fwo/IDN60901/IDN60901.94752.json